Time;durP1;ratioP1;P1;durP2;ratioP2;P2;SDS_P1;SDS_P2;PMS_P1;PMS_P2;Temp;Humidity;BMP_temperature;BMP_pressure;BME280_temperature;BME280_humidity;BME280_pressure;Samples;Min_cycle;Max_cycle;Signal;HPM_P1;HPM_P2
2022/10/15 00:01:14;;;;;;;5.82;3.45;;;;;;;12.46;64.96;94156.22;5063711;28;20261;-77
2022/10/15 00:03:43;;;;;;;7.82;3.67;;;;;;;12.44;64.92;94156.53;5063641;28;20020;-78
2022/10/15 00:06:18;;;;;;;6.78;3.45;;;;;;;12.46;65.00;94161.56;5063447;28;20021;-78
2022/10/15 00:08:44;;;;;;;5.10;3.55;;;;;;;12.42;65.06;94158.72;5063347;28;20056;-78
2022/10/15 00:11:18;;;;;;;6.82;3.80;;;;;;;12.38;65.27;94154.34;5063488;28;20032;-78
2022/10/15 00:13:44;;;;;;;6.35;3.83;;;;;;;12.33;65.71;94149.91;5063460;28;20028;-78
2022/10/15 00:16:13;;;;;;;9.63;3.75;;;;;;;12.32;65.23;94158.28;5063293;28;20021;-78
2022/10/15 00:18:40;;;;;;;5.97;3.90;;;;;;;12.28;65.83;94152.78;5063372;28;20052;-78
2022/10/15 00:21:08;;;;;;;4.93;3.55;;;;;;;12.28;65.82;94155.44;5063454;28;20040;-78
2022/10/15 00:23:34;;;;;;;5.45;3.10;;;;;;;12.24;65.84;94149.94;5063194;28;20047;-78
2022/10/15 00:26:03;;;;;;;8.70;4.00;;;;;;;12.25;66.07;94148.03;5063065;28;20028;-78
2022/10/15 00:28:29;;;;;;;8.05;3.70;;;;;;;12.24;65.90;94143.81;5062646;28;20341;-78
2022/10/15 00:31:03;;;;;;;9.18;4.05;;;;;;;12.19;65.99;94139.44;5062082;28;20287;-78
2022/10/15 00:33:28;;;;;;;14.13;3.60;;;;;;;12.17;66.41;94138.97;5063018;28;20024;-78
2022/10/15 00:36:06;;;;;;;8.07;3.60;;;;;;;12.13;66.58;94140.69;5063244;28;20076;-78
2022/10/15 00:38:32;;;;;;;7.30;3.78;;;;;;;12.13;66.92;94142.56;5062883;28;20218;-78
2022/10/15 00:40:58;;;;;;;6.82;3.15;;;;;;;12.09;66.94;94139.75;5061768;28;20074;-77
2022/10/15 00:43:45;;;;;;;8.35;3.40;;;;;;;12.11;67.04;94132.22;5062912;28;20020;-77
2022/10/15 00:46:40;;;;;;;7.72;3.80;;;;;;;12.09;67.14;94126.41;5063144;28;20257;-78
2022/10/15 00:49:23;;;;;;;7.07;4.13;;;;;;;12.07;67.39;94120.59;5062790;28;20040;-78
2022/10/15 00:51:56;;;;;;;8.32;3.97;;;;;;;12.02;67.61;94120.72;5062812;28;20036;-78
2022/10/15 00:54:22;;;;;;;7.30;4.07;;;;;;;11.97;67.96;94113.66;5062596;28;20020;-77
2022/10/15 00:56:49;;;;;;;9.75;4.30;;;;;;;11.97;67.78;94118.22;5062816;28;20075;-78
2022/10/15 00:59:17;;;;;;;7.13;3.85;;;;;;;12.00;67.87;94115.69;5062648;28;20024;-78
2022/10/15 01:01:43;;;;;;;6.80;3.45;;;;;;;12.02;68.03;94118.06;5062638;28;20028;-78
2022/10/15 01:04:10;;;;;;;7.38;3.90;;;;;;;11.97;67.98;94110.22;5062745;28;20036;-78
2022/10/15 01:06:35;;;;;;;7.45;4.43;;;;;;;11.94;68.16;94118.84;5062680;28;20057;-77
2022/10/15 01:09:01;;;;;;;9.93;3.75;;;;;;;11.94;68.42;94114.28;5062527;28;20025;-78
2022/10/15 01:11:47;;;;;;;6.28;3.83;;;;;;;11.95;68.24;94110.53;5062501;28;20353;-78
2022/10/15 01:14:40;;;;;;;9.77;4.13;;;;;;;11.94;68.36;94116.16;5062499;28;20075;-78
2022/10/15 01:17:12;;;;;;;6.60;3.65;;;;;;;11.89;68.61;94106.44;5062583;28;20325;-78
2022/10/15 01:20:06;;;;;;;6.72;3.97;;;;;;;11.92;68.33;94111.13;5062586;28;20164;-78
2022/10/15 01:22:56;;;;;;;10.95;4.45;;;;;;;11.96;68.16;94113.97;5062496;28;20025;-78
2022/10/15 01:25:41;;;;;;;9.60;4.07;;;;;;;11.96;67.50;94108.63;5062456;28;20063;-78
2022/10/15 01:28:32;;;;;;;6.05;3.92;;;;;;;11.96;67.63;94103.28;5062341;28;20084;-78
2022/10/15 01:31:07;;;;;;;5.68;3.95;;;;;;;11.96;67.61;94112.06;5062315;28;20196;-78
2022/10/15 01:33:47;;;;;;;10.27;4.70;;;;;;;11.98;67.31;94112.56;5062568;28;20151;-78
2022/10/15 01:36:21;;;;;;;7.30;4.88;;;;;;;12.03;67.22;94116.97;5062374;28;20029;-77
2022/10/15 01:38:55;;;;;;;11.23;4.90;;;;;;;12.05;67.08;94114.75;5062280;28;20017;-78
2022/10/15 01:41:32;;;;;;;6.75;4.13;;;;;;;12.07;67.06;94115.25;5065007;28;20122;-78
2022/10/15 01:44:17;;;;;;;6.47;4.30;;;;;;;12.11;67.36;94118.84;5066423;28;20028;-78
2022/10/15 01:46:53;;;;;;;6.25;4.47;;;;;;;12.13;67.10;94113.97;5066268;28;20032;-78
2022/10/15 01:49:23;;;;;;;6.57;4.10;;;;;;;12.15;67.00;94117.13;5066110;28;20021;-78
2022/10/15 01:51:50;;;;;;;7.55;4.55;;;;;;;12.19;66.86;94118.06;5066209;28;20084;-77
2022/10/15 01:54:18;;;;;;;6.72;4.13;;;;;;;12.22;66.82;94119.28;5066056;28;20043;-78
2022/10/15 01:56:48;;;;;;;9.43;5.05;;;;;;;12.24;66.21;94123.22;5064922;28;20035;-77
2022/10/15 01:59:18;;;;;;;6.70;4.10;;;;;;;12.22;66.05;94121.97;5066099;28;20029;-78
2022/10/15 02:01:45;;;;;;;6.50;3.72;;;;;;;12.21;65.94;94115.84;5066182;28;20233;-78
2022/10/15 02:04:20;;;;;;;7.13;3.80;;;;;;;12.21;65.83;94121.19;5065875;28;20318;-78
2022/10/15 02:06:52;;;;;;;11.90;4.30;;;;;;;12.23;65.70;94118.19;5065658;28;20074;-78
2022/10/15 02:09:29;;;;;;;7.70;3.90;;;;;;;12.22;66.08;94122.75;5065919;28;20300;-78
2022/10/15 02:11:58;;;;;;;6.13;4.38;;;;;;;12.24;66.00;94127.78;5065518;28;20029;-78
2022/10/15 02:14:33;;;;;;;10.18;4.43;;;;;;;12.26;65.75;94116.78;5065629;28;20204;-78
2022/10/15 02:17:07;;;;;;;7.03;3.25;;;;;;;12.23;65.81;94113.66;5065485;28;20066;-77
2022/10/15 02:19:50;;;;;;;8.65;3.75;;;;;;;12.28;65.85;94119.94;5065587;28;20063;-77
2022/10/15 02:22:49;;;;;;;5.90;3.88;;;;;;;12.32;66.15;94118.19;5065714;28;20021;-77
2022/10/15 02:25:20;;;;;;;5.15;3.70;;;;;;;12.30;66.39;94118.50;5065319;28;20033;-77
2022/10/15 02:27:49;;;;;;;6.35;4.13;;;;;;;12.30;66.50;94125.75;5065374;28;20025;-79
2022/10/15 02:30:15;;;;;;;5.38;3.67;;;;;;;12.29;66.74;94116.13;5065427;28;20021;-77
2022/10/15 02:32:48;;;;;;;9.18;3.72;;;;;;;12.28;66.84;94128.72;5065382;28;20028;-78
2022/10/15 02:35:13;;;;;;;8.00;3.97;;;;;;;12.25;67.12;94124.00;5065063;28;20323;-78
2022/10/15 02:37:44;;;;;;;5.60;3.50;;;;;;;12.23;67.05;94121.66;5065603;28;20067;-78
2022/10/15 02:40:11;;;;;;;9.02;3.15;;;;;;;12.22;67.09;94130.00;5065471;28;20024;-78
2022/10/15 02:42:36;;;;;;;5.32;3.22;;;;;;;12.17;66.94;94119.44;5065524;28;20085;-78
2022/10/15 02:45:05;;;;;;;9.90;3.63;;;;;;;12.13;67.24;94130.00;5065246;28;20219;-78
2022/10/15 02:47:31;;;;;;;5.10;3.58;;;;;;;12.09;67.41;94126.41;5064838;28;20036;-78
2022/10/15 02:49:57;;;;;;;5.95;3.53;;;;;;;12.11;67.52;94123.38;5065145;28;20063;-78
2022/10/15 02:52:22;;;;;;;7.15;3.75;;;;;;;12.06;67.62;94121.66;5064986;28;20100;-78
2022/10/15 02:54:47;;;;;;;6.00;3.45;;;;;;;12.04;67.75;94118.53;5065059;28;20031;-78
2022/10/15 02:57:13;;;;;;;5.20;3.17;;;;;;;12.05;67.88;94122.78;5064835;28;20040;-78
2022/10/15 02:59:39;;;;;;;5.78;3.42;;;;;;;12.09;67.95;94122.91;5064996;28;20092;-78
2022/10/15 03:02:04;;;;;;;6.32;4.00;;;;;;;12.01;68.67;94124.50;5064895;28;20029;-78
2022/10/15 03:04:30;;;;;;;7.53;3.60;;;;;;;11.98;68.59;94117.13;5064710;28;20087;-78
2022/10/15 03:06:55;;;;;;;7.85;4.53;;;;;;;11.96;68.97;94119.31;5064692;28;20033;-78
2022/10/15 03:09:21;;;;;;;10.30;4.00;;;;;;;11.95;69.01;94118.53;5064646;28;20025;-78
2022/10/15 03:11:46;;;;;;;8.23;4.85;;;;;;;11.95;68.99;94117.75;5064429;28;20029;-78
2022/10/15 03:14:12;;;;;;;5.78;3.70;;;;;;;11.93;68.93;94117.28;5064684;28;20100;-78
2022/10/15 03:16:37;;;;;;;5.70;3.50;;;;;;;11.89;68.97;94122.47;5064712;28;20033;-78
2022/10/15 03:19:03;;;;;;;9.43;4.18;;;;;;;11.85;68.97;94108.91;5064508;28;20021;-78
2022/10/15 03:21:29;;;;;;;12.30;5.13;;;;;;;11.81;69.28;94118.66;5064498;28;20021;-78
2022/10/15 03:23:58;;;;;;;8.43;4.13;;;;;;;11.76;69.36;94115.34;5064220;28;20053;-78
2022/10/15 03:26:27;;;;;;;13.02;4.05;;;;;;;11.75;69.64;94119.13;5064269;28;20029;-78
2022/10/15 03:28:52;;;;;;;5.75;3.70;;;;;;;11.73;69.63;94122.13;5064437;28;20245;-78
2022/10/15 03:31:18;;;;;;;7.15;3.95;;;;;;;11.73;69.64;94124.78;5064381;28;20087;-78
2022/10/15 03:33:44;;;;;;;7.45;4.30;;;;;;;11.76;69.58;94126.81;5064186;28;20049;-78
2022/10/15 03:36:09;;;;;;;7.75;4.40;;;;;;;11.76;69.50;94126.81;5064288;28;20068;-78
2022/10/15 03:38:35;;;;;;;9.82;4.20;;;;;;;11.76;69.47;94120.69;5064120;28;20139;-78
2022/10/15 03:41:00;;;;;;;7.18;4.10;;;;;;;11.79;69.47;94131.53;5064009;28;20075;-78
2022/10/15 03:43:26;;;;;;;7.15;3.85;;;;;;;11.80;69.40;94122.41;5064210;28;20020;-78
2022/10/15 03:45:52;;;;;;;12.68;4.43;;;;;;;11.85;69.16;94124.16;5064037;28;20029;-78
2022/10/15 03:48:18;;;;;;;8.57;4.90;;;;;;;11.85;68.86;94119.59;5062755;28;20036;-78
2022/10/15 03:50:45;;;;;;;5.80;3.67;;;;;;;11.88;68.75;94122.75;5063887;28;20319;-78
2022/10/15 03:53:11;;;;;;;5.82;3.83;;;;;;;11.89;68.48;94119.00;5064020;28;20045;-78
2022/10/15 03:55:36;;;;;;;10.88;3.88;;;;;;;11.90;68.38;94123.25;5063922;28;20024;-78
2022/10/15 03:58:02;;;;;;;15.43;5.57;;;;;;;11.88;68.36;94128.88;5063703;28;20025;-78
2022/10/15 04:00:28;;;;;;;6.55;4.00;;;;;;;11.84;68.23;94127.91;5063609;28;20017;-78
2022/10/15 04:02:53;;;;;;;7.40;4.60;;;;;;;11.81;68.68;94125.88;5062980;28;20045;-78
2022/10/15 04:05:19;;;;;;;8.45;4.18;;;;;;;11.80;68.59;94138.44;5063597;28;20203;-78
2022/10/15 04:07:44;;;;;;;9.48;4.63;;;;;;;11.75;68.99;94127.91;5063613;28;20021;-78
2022/10/15 04:10:10;;;;;;;6.18;4.22;;;;;;;11.72;69.19;94133.09;5063815;28;20096;-78
2022/10/15 04:12:35;;;;;;;11.77;4.60;;;;;;;11.69;69.59;94137.19;5063373;28;20028;-78
2022/10/15 04:15:01;;;;;;;8.38;4.70;;;;;;;11.65;69.85;94138.91;5063481;28;20021;-78
2022/10/15 04:17:26;;;;;;;7.57;4.22;;;;;;;11.64;69.88;94140.00;5063445;28;20013;-78
2022/10/15 04:19:52;;;;;;;8.70;4.65;;;;;;;11.61;70.05;94143.31;5063291;28;20012;-78
2022/10/15 04:22:18;;;;;;;12.10;5.75;;;;;;;11.60;70.03;94139.03;5063369;28;20021;-78
2022/10/15 04:24:43;;;;;;;10.88;4.80;;;;;;;11.59;70.26;94143.59;5063073;28;20045;-78
2022/10/15 04:27:11;;;;;;;9.35;4.75;;;;;;;11.57;70.28;94142.34;5063299;28;20028;-78
2022/10/15 04:29:36;;;;;;;10.10;4.72;;;;;;;11.57;70.51;94145.03;5063175;28;20091;-78
2022/10/15 04:32:02;;;;;;;8.85;4.20;;;;;;;11.57;70.58;94150.38;5063120;28;20025;-78
2022/10/15 04:34:27;;;;;;;9.50;4.50;;;;;;;11.58;70.53;94142.06;5063096;28;20318;-78
2022/10/15 04:36:52;;;;;;;11.68;4.78;;;;;;;11.60;70.84;94149.72;5062950;28;20092;-78
2022/10/15 04:39:18;;;;;;;12.23;5.00;;;;;;;11.60;70.90;94153.19;5063041;28;20021;-78
2022/10/15 04:41:43;;;;;;;15.00;5.13;;;;;;;11.65;70.82;94154.94;5063100;28;20074;-78
2022/10/15 04:44:09;;;;;;;9.93;5.20;;;;;;;11.63;70.67;94157.13;5062971;28;20032;-78
2022/10/15 04:46:35;;;;;;;15.27;4.85;;;;;;;11.65;70.85;94155.72;5062786;28;20018;-78
2022/10/15 04:49:00;;;;;;;12.68;5.45;;;;;;;11.66;70.74;94159.16;5062782;28;20020;-78
2022/10/15 04:51:26;;;;;;;10.68;5.72;;;;;;;11.69;70.72;94163.09;5062795;28;20032;-78
2022/10/15 04:53:52;;;;;;;12.82;5.40;;;;;;;11.70;70.65;94164.66;5062687;28;20020;-78
2022/10/15 04:56:19;;;;;;;12.32;5.80;;;;;;;11.71;70.67;94167.03;5063003;28;20062;-78
2022/10/15 04:58:46;;;;;;;10.02;5.07;;;;;;;11.70;70.62;94165.44;5062794;28;20045;-77
2022/10/15 05:01:15;;;;;;;15.35;5.47;;;;;;;11.73;70.73;94169.41;5062787;28;20218;-78
2022/10/15 05:03:42;;;;;;;13.68;5.35;;;;;;;11.73;70.66;94172.06;5062788;28;20338;-78
2022/10/15 05:06:10;;;;;;;16.67;5.15;;;;;;;11.76;70.67;94179.44;5062639;28;20067;-78
2022/10/15 05:08:37;;;;;;;8.52;5.03;;;;;;;11.76;70.70;94180.22;5062649;28;20028;-78
2022/10/15 05:11:08;;;;;;;17.65;4.97;;;;;;;11.79;70.50;94179.59;5062770;28;20048;-78
2022/10/15 05:13:34;;;;;;;11.20;4.90;;;;;;;11.81;70.34;94182.75;5062465;28;20017;-78
2022/10/15 05:16:10;;;;;;;11.43;5.15;;;;;;;11.81;70.32;94182.75;5062423;28;20024;-78
2022/10/15 05:18:36;;;;;;;8.43;4.82;;;;;;;11.83;70.28;94185.91;5062465;28;20029;-78
2022/10/15 05:21:01;;;;;;;9.43;5.15;;;;;;;11.84;70.27;94190.16;5062656;28;20040;-78
2022/10/15 05:23:27;;;;;;;17.25;4.70;;;;;;;11.84;70.27;94187.47;5062541;28;20044;-78
2022/10/15 05:25:52;;;;;;;6.88;4.72;;;;;;;11.87;70.39;94183.41;5062487;28;20040;-78
2022/10/15 05:28:18;;;;;;;22.33;5.03;;;;;;;11.89;70.24;94193.81;5062087;28;20196;-78
2022/10/15 05:30:44;;;;;;;11.88;5.20;;;;;;;11.91;70.16;94194.28;5062272;28;20017;-78
2022/10/15 05:33:10;;;;;;;19.17;5.80;;;;;;;11.94;69.99;94185.63;5062605;28;20091;-78
2022/10/15 05:35:36;;;;;;;15.63;5.68;;;;;;;11.97;69.95;94195.69;5062244;28;20032;-78
2022/10/15 05:38:03;;;;;;;10.38;4.68;;;;;;;12.00;70.21;94189.72;5062334;28;20020;-78
2022/10/15 05:40:28;;;;;;;11.90;5.10;;;;;;;12.04;69.69;94202.13;5062220;28;20028;-78
2022/10/15 05:42:54;;;;;;;12.80;6.32;;;;;;;12.08;69.45;94199.63;5062231;28;20342;-78
2022/10/15 05:45:20;;;;;;;13.50;6.10;;;;;;;12.14;69.42;94201.03;5062420;28;20104;-78
2022/10/15 05:47:45;;;;;;;14.18;5.75;;;;;;;12.18;69.32;94212.66;5062207;28;20029;-78
2022/10/15 05:50:10;;;;;;;12.02;6.15;;;;;;;12.26;68.99;94216.44;5062311;28;20016;-78
2022/10/15 05:52:36;;;;;;;22.92;5.68;;;;;;;12.31;68.59;94207.47;5062113;28;20021;-78
2022/10/15 05:55:01;;;;;;;11.50;5.85;;;;;;;12.34;68.70;94210.31;5062153;28;20040;-78
2022/10/15 05:57:27;;;;;;;14.05;4.80;;;;;;;12.37;68.69;94215.00;5061802;28;20037;-78
2022/10/15 05:59:52;;;;;;;12.88;5.50;;;;;;;12.44;68.49;94210.00;5061885;28;20032;-78
2022/10/15 06:02:18;;;;;;;12.52;6.10;;;;;;;12.50;68.12;94207.94;5062086;28;20039;-78
2022/10/15 06:04:43;;;;;;;13.25;6.07;;;;;;;12.55;68.13;94210.44;5062048;28;20051;-77
2022/10/15 06:07:09;;;;;;;13.93;5.53;;;;;;;12.63;67.88;94211.53;5061948;28;20254;-78
2022/10/15 06:09:34;;;;;;;11.65;5.65;;;;;;;12.70;67.45;94222.56;5062045;28;20021;-78
2022/10/15 06:12:00;;;;;;;14.80;5.63;;;;;;;12.77;67.23;94222.06;5061928;28;20200;-78
2022/10/15 06:14:25;;;;;;;11.77;4.70;;;;;;;12.79;66.50;94215.28;5061872;28;20021;-78
2022/10/15 06:16:53;;;;;;;12.75;6.38;;;;;;;12.76;66.36;94229.31;5061926;28;20025;-78
2022/10/15 06:19:19;;;;;;;14.30;4.85;;;;;;;12.70;66.61;94222.56;5061994;28;20231;-78
2022/10/15 06:21:44;;;;;;;10.95;5.30;;;;;;;12.72;66.79;94227.56;5061674;28;20021;-77
2022/10/15 06:24:10;;;;;;;19.15;5.95;;;;;;;12.72;66.63;94230.25;5061972;28;20099;-78
2022/10/15 06:26:36;;;;;;;14.15;5.40;;;;;;;12.75;66.65;94237.66;5063188;28;20025;-78
2022/10/15 06:29:01;;;;;;;15.18;6.57;;;;;;;12.77;66.61;94232.75;5065331;28;20036;-78
2022/10/15 06:31:27;;;;;;;17.25;5.88;;;;;;;12.74;66.69;94226.16;5065362;28;20028;-78
2022/10/15 06:33:52;;;;;;;13.82;4.95;;;;;;;12.73;66.55;94240.63;5065485;28;20071;-78
2022/10/15 06:36:18;;;;;;;14.13;5.38;;;;;;;12.79;66.76;94235.91;5065264;28;20025;-78
2022/10/15 06:38:45;;;;;;;12.63;5.38;;;;;;;12.85;66.57;94246.13;5065104;28;20025;-78
2022/10/15 06:41:12;;;;;;;11.07;4.72;;;;;;;12.92;65.93;94240.28;5065377;28;20035;-78
2022/10/15 06:43:38;;;;;;;13.57;4.82;;;;;;;12.98;65.49;94247.03;5065165;28;20047;-78
2022/10/15 06:46:05;;;;;;;10.50;5.40;;;;;;;13.00;65.40;94250.19;5065213;28;20017;-78
2022/10/15 06:48:31;;;;;;;13.00;4.95;;;;;;;13.08;65.44;94247.81;5064877;28;20203;-78
2022/10/15 06:50:58;;;;;;;14.88;4.45;;;;;;;13.10;65.08;94245.59;5064979;28;20031;-78
2022/10/15 06:53:24;;;;;;;15.63;5.38;;;;;;;13.15;64.96;94250.78;5064973;28;20066;-78
2022/10/15 06:55:49;;;;;;;12.18;5.32;;;;;;;13.20;64.85;94251.38;5064866;28;20070;-78
2022/10/15 06:58:15;;;;;;;9.68;4.93;;;;;;;13.24;64.65;94240.84;5064963;28;20016;-78
2022/10/15 07:00:40;;;;;;;12.25;4.95;;;;;;;13.28;64.51;94243.66;5064871;28;20025;-78
2022/10/15 07:03:06;;;;;;;10.43;4.68;;;;;;;13.30;63.24;94252.19;5064803;28;20028;-78
2022/10/15 07:05:33;;;;;;;18.48;5.40;;;;;;;13.36;63.05;94257.03;5064796;28;20418;-78
2022/10/15 07:07:59;;;;;;;8.57;5.50;;;;;;;13.42;62.58;94255.75;5064492;28;20311;-78
2022/10/15 07:10:26;;;;;;;7.57;4.15;;;;;;;13.42;62.20;94253.09;5064598;28;20021;-78
2022/10/15 07:12:53;;;;;;;7.32;4.20;;;;;;;13.43;62.16;94248.50;5064568;28;20020;-78
2022/10/15 07:15:23;;;;;;;14.82;4.57;;;;;;;13.49;62.39;94251.78;5064335;28;20024;-78
2022/10/15 07:18:00;;;;;;;10.45;4.53;;;;;;;13.55;61.59;94258.53;5064456;28;20349;-78
2022/10/15 07:20:27;;;;;;;13.70;4.13;;;;;;;13.61;60.96;94257.25;5064305;28;20025;-78
2022/10/15 07:23:00;;;;;;;8.20;4.10;;;;;;;13.58;61.29;94258.69;5064138;28;20016;-78
2022/10/15 07:25:26;;;;;;;8.80;4.28;;;;;;;13.61;61.13;94266.06;5064305;28;20123;-78
2022/10/15 07:27:54;;;;;;;23.95;5.53;;;;;;;13.60;61.20;94266.41;5064123;28;20021;-78
2022/10/15 07:30:20;;;;;;;10.27;5.30;;;;;;;13.65;61.31;94258.97;5064167;28;20088;-78
2022/10/15 07:32:45;;;;;;;31.23;5.35;;;;;;;13.72;61.49;94253.13;5063031;28;20029;-78
2022/10/15 07:35:11;;;;;;;12.27;5.35;;;;;;;13.80;60.60;94259.56;5064117;28;20079;-78
2022/10/15 07:37:36;;;;;;;11.18;4.82;;;;;;;13.87;60.39;94257.13;5062954;28;20025;-78
2022/10/15 07:40:02;;;;;;;15.48;5.47;;;;;;;13.89;60.40;94251.47;5063938;28;20114;-78
2022/10/15 07:42:28;;;;;;;13.95;4.97;;;;;;;13.92;60.26;94259.66;5063881;28;20036;-78
2022/10/15 07:44:53;;;;;;;11.02;5.43;;;;;;;14.00;59.79;94264.16;5064046;28;20220;-78
2022/10/15 07:47:19;;;;;;;17.88;5.97;;;;;;;14.05;59.29;94263.97;5063729;28;20071;-78
2022/10/15 07:49:44;;;;;;;15.95;5.20;;;;;;;14.12;59.03;94268.03;5063593;28;20032;-78
2022/10/15 07:52:10;;;;;;;18.20;5.28;;;;;;;14.16;58.97;94264.38;5063878;28;20196;-78
2022/10/15 07:54:36;;;;;;;13.63;4.90;;;;;;;14.19;58.47;94255.69;5063751;28;20021;-78
2022/10/15 07:57:01;;;;;;;9.57;4.47;;;;;;;14.30;57.82;94268.72;5063733;28;20017;-78
2022/10/15 07:59:26;;;;;;;12.43;4.97;;;;;;;14.32;57.33;94261.13;5063829;28;20314;-78
2022/10/15 08:01:52;;;;;;;10.68;4.78;;;;;;;14.27;57.53;94263.97;5063444;28;20227;-78
2022/10/15 08:04:19;;;;;;;13.57;4.63;;;;;;;14.37;57.63;94264.41;5063124;28;20032;-78
2022/10/15 08:06:45;;;;;;;11.77;5.32;;;;;;;14.49;57.52;94268.25;5062995;28;20043;-78
2022/10/15 08:09:11;;;;;;;10.30;4.18;;;;;;;14.60;56.75;94266.78;5063695;28;20021;-78
2022/10/15 08:11:36;;;;;;;9.02;4.57;;;;;;;14.62;56.14;94261.88;5063408;28;20342;-78
2022/10/15 08:14:02;;;;;;;17.98;5.03;;;;;;;14.67;55.88;94274.28;5063074;28;20077;-78
2022/10/15 08:16:28;;;;;;;12.27;5.43;;;;;;;14.59;55.78;94263.31;5063331;28;20021;-78
2022/10/15 08:18:53;;;;;;;8.77;4.47;;;;;;;14.59;55.69;94260.63;5063339;28;20040;-80
2022/10/15 08:21:19;;;;;;;7.95;4.00;;;;;;;14.62;55.70;94259.97;5063020;28;20017;-78
2022/10/15 08:23:44;;;;;;;10.18;4.55;;;;;;;14.58;56.49;94256.38;5063059;28;20045;-78
2022/10/15 08:26:10;;;;;;;10.80;4.55;;;;;;;14.65;56.67;94250.47;5063404;28;20025;-78
2022/10/15 08:28:36;;;;;;;11.82;4.50;;;;;;;14.68;56.24;94247.16;5062856;28;20036;-78
2022/10/15 08:31:02;;;;;;;10.45;4.53;;;;;;;14.73;56.69;94246.94;5061969;28;20052;-78
2022/10/15 08:33:28;;;;;;;19.58;4.60;;;;;;;14.80;56.25;94249.09;5062995;28;20063;-78
2022/10/15 08:35:54;;;;;;;12.38;4.38;;;;;;;14.79;55.94;94247.50;5062890;28;20033;-78
2022/10/15 08:38:19;;;;;;;8.20;4.80;;;;;;;14.78;56.11;94245.97;5063314;28;20039;-78
2022/10/15 08:40:48;;;;;;;14.55;5.28;;;;;;;14.88;56.25;94242.06;5063013;28;20079;-78
2022/10/15 08:43:29;;;;;;;8.98;4.47;;;;;;;14.90;55.56;94234.47;5062797;28;20032;-78
2022/10/15 08:45:59;;;;;;;43.78;5.63;;;;;;;14.94;54.59;94232.69;5062784;28;20036;-78
2022/10/15 08:48:32;;;;;;;16.08;4.70;;;;;;;15.05;54.23;94239.22;5062507;28;20035;-78
2022/10/15 08:51:08;;;;;;;10.05;4.38;;;;;;;15.13;52.69;94245.63;5062548;28;20071;-78
2022/10/15 08:53:48;;;;;;;10.23;4.80;;;;;;;15.20;52.53;94240.47;5062614;28;20032;-78
2022/10/15 08:56:20;;;;;;;12.77;4.20;;;;;;;15.20;52.79;94240.47;5062724;28;20021;-78
2022/10/15 08:58:58;;;;;;;5.90;3.70;;;;;;;15.17;53.59;94241.16;5062348;28;20059;-78
2022/10/15 09:01:47;;;;;;;36.03;5.65;;;;;;;15.20;53.53;94245.84;5062604;28;20051;-78
2022/10/15 09:04:21;;;;;;;11.02;4.70;;;;;;;15.30;52.72;94244.63;5062402;28;20253;-78
2022/10/15 09:06:55;;;;;;;7.80;4.07;;;;;;;15.32;52.62;94245.88;5062296;28;20024;-78
2022/10/15 09:09:30;;;;;;;14.32;5.35;;;;;;;15.42;51.89;94241.97;5062508;28;20227;-78
2022/10/15 09:12:05;;;;;;;6.72;3.75;;;;;;;15.56;51.50;94244.34;5061185;28;20055;-78
2022/10/15 09:14:36;;;;;;;8.70;4.00;;;;;;;15.68;51.42;94240.88;5062552;28;20036;-78
2022/10/15 09:17:18;;;;;;;7.72;3.80;;;;;;;15.74;50.64;94247.63;5062415;28;20307;-78
2022/10/15 09:19:46;;;;;;;13.02;4.07;;;;;;;15.83;49.89;94241.03;5062573;28;20051;-79
2022/10/15 09:22:23;;;;;;;9.43;3.80;;;;;;;15.90;50.33;94253.13;5062393;28;20028;-79
2022/10/15 09:24:49;;;;;;;7.70;3.78;;;;;;;15.97;50.15;94250.63;5062361;28;20270;-80
2022/10/15 09:27:25;;;;;;;7.05;3.58;;;;;;;15.97;49.66;94246.03;5062293;28;20116;-79
2022/10/15 09:30:02;;;;;;;10.07;3.83;;;;;;;16.01;49.55;94246.16;5062431;28;20032;-78
2022/10/15 09:32:31;;;;;;;7.85;3.60;;;;;;;16.02;48.65;94237.75;5062113;28;20041;-78
2022/10/15 09:35:05;;;;;;;4.78;3.05;;;;;;;16.05;49.12;94247.81;5061167;28;20029;-78
2022/10/15 09:37:43;;;;;;;7.00;3.83;;;;;;;16.13;48.55;94246.13;5062344;28;20041;-78
2022/10/15 09:40:23;;;;;;;7.00;3.67;;;;;;;16.13;48.96;94242.69;5062243;28;20024;-78
2022/10/15 09:42:51;;;;;;;12.50;4.25;;;;;;;16.24;48.63;94239.19;5062357;28;20036;-78
2022/10/15 09:45:17;;;;;;;5.45;3.42;;;;;;;16.36;48.14;94232.97;5062248;28;20032;-79
2022/10/15 09:47:43;;;;;;;7.78;4.20;;;;;;;16.42;47.53;94233.53;5060917;28;20067;-78
2022/10/15 09:50:12;;;;;;;8.25;3.15;;;;;;;16.55;46.52;94239.69;5062264;28;20226;-78
2022/10/15 09:52:40;;;;;;;8.27;3.20;;;;;;;16.62;45.14;94234.47;5062235;28;20020;-78
2022/10/15 09:55:25;;;;;;;7.53;3.88;;;;;;;16.76;45.60;94231.41;5062246;28;20029;-78
2022/10/15 09:57:54;;;;;;;9.50;3.45;;;;;;;16.87;45.85;94237.88;5062022;28;20025;-78
2022/10/15 10:00:19;;;;;;;7.15;3.45;;;;;;;16.90;45.98;94229.13;5062218;28;20021;-78
2022/10/15 10:03:06;;;;;;;8.20;4.05;;;;;;;17.02;46.05;94231.75;5065506;28;20087;-79
2022/10/15 10:05:35;;;;;;;9.23;3.67;;;;;;;17.09;45.22;94227.69;5066070;28;20045;-78
2022/10/15 10:08:21;;;;;;;6.03;3.50;;;;;;;17.13;42.92;94245.50;5065859;28;20322;-77
2022/10/15 10:10:54;;;;;;;20.27;3.33;;;;;;;17.11;42.84;94244.28;5065685;28;20029;-77
2022/10/15 10:13:27;;;;;;;15.80;3.30;;;;;;;17.00;43.67;94236.72;5065909;28;20024;-78
2022/10/15 10:15:55;;;;;;;7.97;3.40;;;;;;;17.02;44.43;94242.53;5065626;28;20048;-78
2022/10/15 10:18:23;;;;;;;5.38;3.20;;;;;;;16.99;43.85;94245.13;5065688;28;20106;-78
2022/10/15 10:21:00;;;;;;;9.13;3.53;;;;;;;16.92;44.14;94234.97;5065464;28;20021;-78
2022/10/15 10:23:34;;;;;;;8.85;3.60;;;;;;;16.99;45.13;94242.44;5065580;28;20044;-78
2022/10/15 10:26:03;;;;;;;5.93;3.47;;;;;;;17.05;44.50;94233.75;5065557;28;20025;-78
2022/10/15 10:28:47;;;;;;;5.93;3.22;;;;;;;17.14;43.63;94235.53;5065337;28;20029;-78
2022/10/15 10:31:13;;;;;;;8.40;3.97;;;;;;;17.20;43.84;94226.06;5065517;28;20302;-78
2022/10/15 10:33:39;;;;;;;5.25;3.08;;;;;;;17.35;43.78;94230.69;5065516;28;20028;-78
2022/10/15 10:36:07;;;;;;;4.85;2.92;;;;;;;17.40;42.20;94225.06;5065235;28;20311;-78
2022/10/15 10:38:39;;;;;;;7.35;4.07;;;;;;;17.45;42.75;94232.09;5065346;28;20227;-78
2022/10/15 10:41:08;;;;;;;6.97;3.20;;;;;;;17.55;41.84;94226.19;5065209;28;20067;-78
2022/10/15 10:43:36;;;;;;;8.50;3.47;;;;;;;17.69;42.13;94220.34;5065379;28;20120;-78
2022/10/15 10:46:05;;;;;;;8.15;3.25;;;;;;;17.86;41.57;94221.16;5064955;28;20025;-78
2022/10/15 10:48:40;;;;;;;4.80;2.78;;;;;;;18.03;41.12;94226.16;5065118;28;20039;-78
2022/10/15 10:51:18;;;;;;;13.98;2.97;;;;;;;18.19;41.71;94216.09;5065210;28;20025;-79
2022/10/15 10:54:02;;;;;;;7.32;3.65;;;;;;;18.30;40.64;94220.94;5065370;28;20059;-79
2022/10/15 10:56:38;;;;;;;5.55;3.15;;;;;;;18.39;39.82;94216.13;5064032;28;20021;-79
2022/10/15 10:59:16;;;;;;;6.45;3.92;;;;;;;18.56;39.30;94213.03;5065085;28;20028;-79
2022/10/15 11:01:41;;;;;;;9.15;3.95;;;;;;;18.67;39.43;94215.16;5065086;28;20253;-79
2022/10/15 11:04:21;;;;;;;5.90;3.75;;;;;;;18.73;39.38;94216.44;5064902;28;20025;-79
2022/10/15 11:07:05;;;;;;;6.90;3.53;;;;;;;18.83;38.94;94210.50;5064660;28;20023;-79
2022/10/15 11:09:56;;;;;;;17.63;4.72;;;;;;;18.76;39.15;94213.03;5064764;28;20028;-79
2022/10/15 11:12:51;;;;;;;8.02;2.60;;;;;;;18.73;38.71;94211.03;5064563;28;20070;-79
2022/10/15 11:15:37;;;;;;;9.27;4.05;;;;;;;18.72;38.67;94206.78;5064986;28;20029;-79
2022/10/15 11:18:31;;;;;;;18.75;5.68;;;;;;;18.72;38.83;94212.16;5064615;28;20017;-79
2022/10/15 11:21:09;;;;;;;11.55;3.33;;;;;;;18.66;38.62;94208.97;5064244;28;20036;-78
2022/10/15 11:24:09;;;;;;;10.77;3.95;;;;;;;18.69;38.50;94204.81;5064258;28;20044;-78
2022/10/15 11:26:53;;;;;;;14.48;6.03;;;;;;;18.77;38.45;94212.66;5064539;28;20155;-78
2022/10/15 11:29:21;;;;;;;7.55;3.97;;;;;;;18.82;38.57;94214.31;5064233;28;20130;-78
2022/10/15 11:32:11;;;;;;;8.30;2.70;;;;;;;18.79;38.52;94206.97;5064228;28;20020;-78
2022/10/15 11:34:43;;;;;;;12.63;4.97;;;;;;;18.78;38.67;94206.13;5064387;28;20025;-79
2022/10/15 11:37:23;;;;;;;9.15;3.60;;;;;;;18.79;38.68;94212.34;5064275;28;20025;-78
2022/10/15 11:40:02;;;;;;;9.45;4.20;;;;;;;18.84;38.50;94203.94;5064101;28;20091;-79
2022/10/15 11:42:38;;;;;;;7.35;3.70;;;;;;;18.80;38.60;94198.47;5064257;28;20028;-79